Les articles d'ExpertMaritime.pro


Votre expert maritime indépendant Xavier Braive est disponible sur la zone de Saujon - Port de Ribérou - 17600

(Charente-Maritime - Poitou-Charentes)


Voir plan
Situation :

Le port de Ribérou est un port de pêche et de plaisance situé au fond de l'estuaire de la Seudre, à Saujon. C'est l'un des deux ports de la ville avec celui du Breuil, un peu en aval.

Actif dès le XIe siècle, il prend son aspect actuel à partir de 1842, sous l'impulsion du ministre des travaux publics de l'époque, Jules Dufaure, " enfant du pays", qui tente ainsi de relancer le commerce maritime et les activités halieutiques, alors en déclin.
Idéalement situé, en marge du centre-ville, de la base de loisirs de La Lande et des espaces préservés des marais de la Seudre (chemins de halage transformés en sentiers de promenade), il est devenu un des hauts lieux du tourisme saujonnais, où sont notamment organisés des soirées thématiques et le feu d'artifice du 14 juillet.

En 2011, le port de Ribérou a été l'objet d'un important programme de rénovation urbaine conduit par l'architecte-urbaniste Sophie Blanchet, complétant des efforts déjà mis en œuvre en centre-ville.
Une partie du site est reconvertie en esplanade piétonne, dotée d'un mobilier urbain contemporain : il se veut une sorte de "trait d'union" entre la base de loisirs de La Lande (piscine, tennis, boulodrome, stade, terrain de basket...), les sentiers de promenade et de découverte des marais de la Seudre, qui débutent au port, et le centre-ville.
L'inauguration du nouveau port a lieu le 18 août 2012, en présence du maire, Pascal Ferchaud, et d'une foule nombreuse venue profiter des animations : concerts, jeux nautiques, joutes, etc.

Aujourd'hui, le port de Ribérou est un petit port de pêche et de plaisance. C'est également une base de départ pour certains sports nautiques (canoë-kayak). Sa longueur est d'environ 250 mètres pour 40 mètres.
Depuis Ribérou, il est possible d'atteindre successivement les ports du Breuil (Saujon), de L'Éguille, de Mornac, de Chaillevette, de Chatressac (Chaillevette), des Grandes Roches et d'Orivol (Étaules), de La Grève à Duret et de Coux (Arvert), de La Grève (La Tremblade) et de La Cayenne (Marennes).


En 2011, la municipalité entame un programme de rénovation du site portuaire, confié à l'architecte-urbaniste Sophie Blanchet. Il consiste en une transformation des anciens parkings en esplanade piétonne, véritable espace de rencontre doté d'un mobilier urbain moderne et à terme, d'espaces verts. Depuis les quais, bordés d'immeubles bourgeois, de petites rues pittoresques et fleuries de roses trémières permettent de sillonner le quartier et de rejoindre le centre-ville.

Le pont à écluse de Ribérou, dit « pont des eaux contraires », a été rénové en 2010. Il marque la séparation entre les eaux de l'estuaire (côté port : eaux saumâtres) et les eaux du fleuve (côté bassin de retenue : eaux douces).



Adresse :

Mairie
1, place Denfert Rochereau
17600 SAUJON

Tél/Fax : 05 46 02 80 07 / 05 46 02 91 92

E-mail : contact@mairie-saujon.fr
Météo locale sur la zone Port de Ribérou
Heure (UTC) Dir.Vent Vit.Vent (nds) Force (Bft) T°min T°max P (mb) Hum.Rel.
25/10/2021 - 18:00:00 au 25/10/2021 - 21:00:00 271° (W) 4 2 14°C 14°C 1022 88 %
25/10/2021 - 21:00:00 au 26/10/2021 - 00:00:00 322° (NW) 4 2 13°C 13°C 1023 89 %
26/10/2021 - 00:00:00 au 26/10/2021 - 03:00:00 025° (NNE) 2 1 12°C 12°C 1024 91 %
26/10/2021 - 03:00:00 au 26/10/2021 - 06:00:00 092° (E) 2 1 11°C 11°C 1024 92 %
26/10/2021 - 06:00:00 au 26/10/2021 - 09:00:00 123° (ESE) 3 1 14°C 14°C 1026 83 %
26/10/2021 - 09:00:00 au 26/10/2021 - 12:00:00 212° (SSW) 2 1 17°C 17°C 1025 66 %
26/10/2021 - 12:00:00 au 26/10/2021 - 15:00:00 259° (W) 2 1 17°C 17°C 1024 62 %
26/10/2021 - 15:00:00 au 26/10/2021 - 18:00:00 341° (NNW) 4 2 13°C 13°C 1025 85 %
26/10/2021 - 18:00:00 au 26/10/2021 - 21:00:00 067° (ENE) 4 2 12°C 12°C 1025 87 %
26/10/2021 - 21:00:00 au 27/10/2021 - 00:00:00 109° (ESE) 5 2 11°C 11°C 1025 83 %
27/10/2021 - 00:00:00 au 27/10/2021 - 03:00:00 115° (ESE) 5 2 11°C 11°C 1024 85 %
27/10/2021 - 03:00:00 au 27/10/2021 - 06:00:00 101° (E) 6 2 10°C 10°C 1024 87 %
27/10/2021 - 06:00:00 au 27/10/2021 - 09:00:00 113° (ESE) 5 2 14°C 14°C 1024 67 %
27/10/2021 - 09:00:00 au 27/10/2021 - 12:00:00 123° (ESE) 5 2 18°C 18°C 1023 47 %
27/10/2021 - 12:00:00 au 27/10/2021 - 15:00:00 110° (ESE) 3 1 19°C 19°C 1021 43 %
27/10/2021 - 15:00:00 au 27/10/2021 - 18:00:00 116° (ESE) 4 2 15°C 15°C 1021 56 %
27/10/2021 - 18:00:00 au 27/10/2021 - 21:00:00 140° (SE) 6 2 13°C 13°C 1020 60 %
27/10/2021 - 21:00:00 au 28/10/2021 - 00:00:00 143° (SE) 7 3 11°C 11°C 1019 70 %
28/10/2021 - 00:00:00 au 28/10/2021 - 03:00:00 142° (SE) 7 3 10°C 10°C 1018 74 %
28/10/2021 - 03:00:00 au 28/10/2021 - 06:00:00 140° (SE) 8 3 9°C 9°C 1017 79 %
28/10/2021 - 06:00:00 au 28/10/2021 - 09:00:00 154° (SSE) 10 3 13°C 13°C 1017 68 %
28/10/2021 - 09:00:00 au 28/10/2021 - 12:00:00 177° (S) 10 3 19°C 19°C 1015 51 %
28/10/2021 - 12:00:00 au 28/10/2021 - 15:00:00 197° (SSW) 8 3 19°C 19°C 1013 50 %
28/10/2021 - 15:00:00 au 28/10/2021 - 18:00:00 151° (SSE) 7 3 15°C 15°C 1012 68 %
28/10/2021 - 18:00:00 au 28/10/2021 - 21:00:00 150° (SSE) 13 4 14°C 14°C 1011 71 %
28/10/2021 - 21:00:00 au 29/10/2021 - 00:00:00 149° (SSE) 14 4 14°C 14°C 1010 78 %
29/10/2021 - 00:00:00 au 29/10/2021 - 03:00:00 155° (SSE) 15 4 13°C 13°C 1009 81 %
29/10/2021 - 03:00:00 au 29/10/2021 - 06:00:00 165° (SSE) 12 4 14°C 14°C 1009 74 %
29/10/2021 - 06:00:00 au 29/10/2021 - 09:00:00 176° (S) 8 3 14°C 14°C 1010 70 %
29/10/2021 - 09:00:00 au 29/10/2021 - 12:00:00 202° (SSW) 9 3 16°C 16°C 1010 77 %
29/10/2021 - 12:00:00 au 29/10/2021 - 15:00:00 192° (SSW) 11 4 15°C 15°C 1009 89 %
29/10/2021 - 15:00:00 au 29/10/2021 - 18:00:00 179° (S) 10 3 13°C 13°C 1010 91 %
29/10/2021 - 18:00:00 au 29/10/2021 - 21:00:00 181° (S) 8 3 13°C 13°C 1010 91 %
29/10/2021 - 21:00:00 au 30/10/2021 - 00:00:00 170° (S) 8 3 12°C 12°C 1010 87 %
30/10/2021 - 00:00:00 au 30/10/2021 - 03:00:00 138° (SE) 9 3 12°C 12°C 1008 82 %
30/10/2021 - 03:00:00 au 30/10/2021 - 06:00:00 143° (SE) 12 4 13°C 13°C 1007 90 %
30/10/2021 - 06:00:00 au 30/10/2021 - 09:00:00 148° (SSE) 13 4 15°C 15°C 1006 78 %
30/10/2021 - 09:00:00 au 30/10/2021 - 12:00:00 149° (SSE) 12 4 15°C 15°C 1004 81 %
30/10/2021 - 12:00:00 au 30/10/2021 - 15:00:00 161° (SSE) 11 4 17°C 17°C 1003 75 %
30/10/2021 - 15:00:00 au 30/10/2021 - 18:00:00 193° (SSW) 11 4 16°C 16°C 1004 82 %
openweathermap
Ces informations sont partiellement extraites de Wikipedia, et des sites pertinents pour cette zone. Compilation d'informations de Xavier Braive.
Xavier Braive, Expert Maritime Plaisance se déplace sur Port de Ribérou, Saujon, 17600, Charente-Maritime

Welcome to Cross-Channel yachtmen !

we can deliver survey reports in english, in case of dammage or prior to buy / sell a boat in France (pre-purchase survey), and more specifically on the Atlantic coast.

Uw onafhankelijk jachtexpert

verkrijkbaar op de Atlantische kust, bij aankoop of reparatie van jachten (metaal, polyester of composiet). Rapporten in Nederlands

BRAIVE, Xavier
Xavier Braive
Expert Maritime
Nouvelle Aquitaine
France
06 71 50 20 17